AirNav   Air Wisconsin pilot careers
 
 1055 users online  

Y77 Bayfield County Airport
Iron River, Wisconsin, USA

GOING TO IRON RIVER?


FAA INFORMATION EFFECTIVE 21 JUNE 2018

Location

FAA Identifier: Y77
Lat/Long: 46-34-34.7870N / 091-27-30.6800W
46-34.579783N / 091-27.511333W
46.5763297 / -91.4585222
(estimated)
Elevation: 1143 ft. / 348 m (estimated)
Variation: 01E (1985)
From city: 2 miles NW of IRON RIVER, WI
Time zone: UTC -5 (UTC -6 during Standard Time)
Zip code: 54847

Airport Operations

Airport use: Open to the public
Activation date: 10/1946
Control tower: no
ARTCC: MINNEAPOLIS CENTER
FSS: GREEN BAY FLIGHT SERVICE STATION
NOTAMs facility: GRB (NOTAM-D service available)
Attendance: UNATTND
Wind indicator: lighted
Segmented circle: no
Lights: ACTVT LIRL RY 08/26 - CTAF.

Airport Communications

CTAF: 122.9

Nearby radio navigation aids

VOR radial/distance  VOR name  Freq  Var
HYRr356/33.4HAYWARD VOR/DME113.4003E
DLHr109/33.5DULUTH VORTAC112.6005E

Airport Services

Parking: tiedowns
Airframe service: NONE
Powerplant service: NONE
Bottled oxygen: NONE
Bulk oxygen: NONE

Runway Information

Runway 8/26

Dimensions: 3000 x 130 ft. / 914 x 40 m
Surface: turf, in fair condition
Runway edge lights: non-standard
NSTD LIRL - 1 LGT EA SIDE OF THLD.
Runway edge markings: 08/26 THLDS MKD WITH RED & WHITE A-FRAMES.
RUNWAY 8  RUNWAY 26
Latitude: 46-34.609833N46-34.663000N
Longitude: 091-27.722833W091-27.011333W
Elevation: 1140.0 ft.1140.0 ft.
Traffic pattern: leftleft
Visual slope indicator: 2-box VASI on left
Obstructions: 33 ft. trees, 600 ft. from runway, 18:1 slope to clear15 ft. road, 383 ft. from runway, 25:1 slope to clear

Airport Ownership and Management from official FAA records

Ownership: Privately-owned
Owner: JOHN PEARSON
PO BOX 1278
HAMILTON, MT 59840
Phone (406) 381-7290
Manager: PAT MCDONOUGH
66615 WILLS RD
BRULE, WI 54820
Phone (715) 372-4848

Airport Operational Statistics

Aircraft based on the field: 3
Single engine airplanes: 3
    
Aircraft operations: avg 44/week *
56% transient general aviation
43% local general aviation
<1% air taxi
* for 12-month period ending 06 June 2017

Additional Remarks

CONFIRM WINTER CONDS AND SNOW REMOVAL WITH AMGR 715-372-4848.
OCCASIONAL WILD GAME ON & INVOF ARPT.

Instrument Procedures

There are no published instrument procedures at Y77.

Some nearby airports with instrument procedures:

KOLG - Solon Springs Municipal Airport (22 nm SW)
KASX - John F Kennedy Memorial Airport (22 nm E)
3CU - Cable Union Airport (24 nm S)
KSUW - Richard I Bong Airport (27 nm W)
KTWM - Richard B Helgeson Airport (31 nm N)
 
Loc | Ops | Rwys | IFR | FBO | Links
Com | Nav | Svcs | Stats | Notes

AirNav Hotels Sweepstakes
 
Area around Y77 (Bayfield County Airport)
 
Road maps at: MapQuest Bing Google
 
Aerial photo
No photo
 
Sectional chart

 
Airport distance calculator
Flying to Bayfield County Airport? Find the distance to fly.

From to Y77

Sunrise and sunset
Times for 24-Jun-2018
 Local
(UTC-5)
 Zulu
(UTC)
Morning civil twilight04:3509:35
Sunrise05:1410:14
Sunset21:0202:02
Evening civil twilight21:4102:41

Current date and time
Zulu (UTC)  24-Jun-2018 22:50:40
Local (UTC-5)  24-Jun-2018 17:50:40
 
METAR
KOLG 
22nm SW 
242235Z AUTO 02010KT 10SM CLR 17/11 A3008 RMK AO1
KASX 
22nm E 
242153Z AUTO 03010KT 10SM CLR 13/08 A3014 RMK AO2 SLP211 T01280078
KDYT 
25nm W 
242235Z AUTO 06019KT 10SM CLR 11/07 A3013 RMK AO2
KSUW 
27nm SW 
242235Z AUTO 06011G18KT 10SM CLR 11/05 A3013 RMK AO2 T01100048
KTWM 
30nm NW 
242235Z AUTO 07016G21KT 10SM CLR 14/04 A3012 RMK AO2
KHYR 
34nm S 
242153Z AUTO 02011KT 10SM CLR 19/12 A3006 RMK AO2 SLP182 T01940122
KDLH 
35nm NW 
242155Z 10013G23KT 10SM CLR 13/06 A3012 RMK AO2 SLP208 T01280056
KBFW 
37nm N 
242235Z AUTO 04010G17KT 10SM CLR 13/02 A3014 RMK AO2
TAF
KHYR 
34nm S 
241729Z 2417/2518 04010KT P6SM SCT200 FM250100 08005KT P6SM BKN250 FM251300 12005KT P6SM SCT140
KDLH 
35nm NW 
241729Z 2417/2518 08015G25KT P6SM SCT100 FM251100 08008KT P6SM VCSH BKN020
NOTAMs
Click for the latest NOTAMs
NOTAMs are issued by the DoD/FAA and will open in a separate window not controlled by AirNav.

 

 
 

Would you like to see your business listed on this page?

 If your business provides an interesting product or service to pilots, flight crews, aircraft, or users of the Bayfield County Airport, you should consider listing it here.  To start the listing process, click on the button below
 
Add a business
 

Other Pages about Bayfield County Airport

Page from the Wisconsin airport directory (PDF)
 
Update a link
 
Copyright © AirNav, LLC. All rights reserved. Privacy Policy  Contact